sensor_id;sensor_type;location;lat;lon;timestamp;pressure;altitude;pressure_sealevel;temperature;humidity
4586;BME280;2305;50.118;8.952;2023-02-23T00:02:19;100216.69;;;10.03;100.00
4586;BME280;2305;50.118;8.952;2023-02-23T00:04:47;100215.63;;;10.06;100.00
4586;BME280;2305;50.118;8.952;2023-02-23T00:07:15;100219.34;;;10.03;100.00
4586;BME280;2305;50.118;8.952;2023-02-23T00:09:45;100214.19;;;10.02;100.00
4586;BME280;2305;50.118;8.952;2023-02-23T00:12:15;100210.34;;;10.06;100.00
4586;BME280;2305;50.118;8.952;2023-02-23T00:14:43;100204.00;;;10.08;100.00
4586;BME280;2305;50.118;8.952;2023-02-23T00:17:11;100202.34;;;10.07;100.00
4586;BME280;2305;50.118;8.952;2023-02-23T00:19:40;100198.75;;;10.08;100.00
4586;BME280;2305;50.118;8.952;2023-02-23T00:22:09;100207.63;;;10.07;100.00
4586;BME280;2305;50.118;8.952;2023-02-23T00:24:38;100206.53;;;10.10;100.00
4586;BME280;2305;50.118;8.952;2023-02-23T00:27:08;100208.19;;;10.11;100.00
4586;BME280;2305;50.118;8.952;2023-02-23T00:29:37;100208.91;;;10.13;100.00
4586;BME280;2305;50.118;8.952;2023-02-23T00:32:06;100201.84;;;10.13;100.00
4586;BME280;2305;50.118;8.952;2023-02-23T00:34:37;100203.53;;;10.14;100.00
4586;BME280;2305;50.118;8.952;2023-02-23T00:37:07;100205.19;;;10.15;100.00
4586;BME280;2305;50.118;8.952;2023-02-23T00:39:35;100207.34;;;10.10;100.00
4586;BME280;2305;50.118;8.952;2023-02-23T00:42:03;100209.75;;;10.13;100.00
4586;BME280;2305;50.118;8.952;2023-02-23T00:44:33;100206.16;;;10.14;100.00
4586;BME280;2305;50.118;8.952;2023-02-23T00:47:03;100204.09;;;10.18;100.00
4586;BME280;2305;50.118;8.952;2023-02-23T00:49:32;100205.06;;;10.17;100.00
4586;BME280;2305;50.118;8.952;2023-02-23T00:52:04;100208.78;;;10.14;100.00
4586;BME280;2305;50.118;8.952;2023-02-23T00:54:31;100207.81;;;10.15;100.00
4586;BME280;2305;50.118;8.952;2023-02-23T00:57:00;100213.09;;;10.15;100.00
4586;BME280;2305;50.118;8.952;2023-02-23T00:59:30;100205.31;;;10.14;100.00
4586;BME280;2305;50.118;8.952;2023-02-23T01:01:58;100212.50;;;10.12;100.00
4586;BME280;2305;50.118;8.952;2023-02-23T01:04:30;100201.97;;;10.12;100.00
4586;BME280;2305;50.118;8.952;2023-02-23T01:06:58;100204.97;;;10.07;100.00
4586;BME280;2305;50.118;8.952;2023-02-23T01:09:30;100213.09;;;10.04;100.00
4586;BME280;2305;50.118;8.952;2023-02-23T01:11:58;100212.16;;;10.05;100.00
4586;BME280;2305;50.118;8.952;2023-02-23T01:14:27;100212.28;;;10.04;100.00
4586;BME280;2305;50.118;8.952;2023-02-23T01:16:56;100215.75;;;10.04;100.00
4586;BME280;2305;50.118;8.952;2023-02-23T01:19:24;100207.72;;;10.06;100.00
4586;BME280;2305;50.118;8.952;2023-02-23T01:21:55;100211.22;;;10.06;100.00
4586;BME280;2305;50.118;8.952;2023-02-23T01:24:23;100210.25;;;10.07;100.00
4586;BME280;2305;50.118;8.952;2023-02-23T01:26:51;100212.88;;;10.07;100.00
4586;BME280;2305;50.118;8.952;2023-02-23T01:29:22;100207.63;;;10.07;100.00
4586;BME280;2305;50.118;8.952;2023-02-23T01:31:50;100206.66;;;10.08;100.00
4586;BME280;2305;50.118;8.952;2023-02-23T01:34:20;100208.44;;;10.08;100.00
4586;BME280;2305;50.118;8.952;2023-02-23T01:36:49;100205.69;;;10.09;100.00
4586;BME280;2305;50.118;8.952;2023-02-23T01:39:20;100204.47;;;10.13;100.00
4586;BME280;2305;50.118;8.952;2023-02-23T01:41:48;100198.38;;;10.13;100.00
4586;BME280;2305;50.118;8.952;2023-02-23T01:47:41;100203.53;;;10.14;100.00
4586;BME280;2305;50.118;8.952;2023-02-23T01:50:09;100199.06;;;10.15;100.00
4586;BME280;2305;50.118;8.952;2023-02-23T01:52:37;100203.25;;;10.17;100.00
4586;BME280;2305;50.118;8.952;2023-02-23T01:55:08;100201.34;;;10.19;100.00
4586;BME280;2305;50.118;8.952;2023-02-23T01:57:39;100205.50;;;10.22;100.00
4586;BME280;2305;50.118;8.952;2023-02-23T02:00:09;100196.91;;;10.20;100.00
4586;BME280;2305;50.118;8.952;2023-02-23T02:02:40;100203.72;;;10.22;100.00
4586;BME280;2305;50.118;8.952;2023-02-23T02:05:08;100200.97;;;10.24;100.00
4586;BME280;2305;50.118;8.952;2023-02-23T02:07:41;100199.16;;;10.24;100.00
4586;BME280;2305;50.118;8.952;2023-02-23T02:10:18;100196.53;;;10.24;100.00
4586;BME280;2305;50.118;8.952;2023-02-23T02:13:07;100196.53;;;10.24;100.00
4586;BME280;2305;50.118;8.952;2023-02-23T02:15:47;100197.50;;;10.23;100.00
4586;BME280;2305;50.118;8.952;2023-02-23T02:18:26;100196.78;;;10.21;100.00
4586;BME280;2305;50.118;8.952;2023-02-23T02:21:22;100197.59;;;10.22;100.00
4586;BME280;2305;50.118;8.952;2023-02-23T02:27:09;100188.19;;;10.19;100.00
4586;BME280;2305;50.118;8.952;2023-02-23T02:39:04;100183.84;;;10.18;100.00
4586;BME280;2305;50.118;8.952;2023-02-23T02:41:52;100186.63;;;10.17;100.00
4586;BME280;2305;50.118;8.952;2023-02-23T02:44:27;100192.72;;;10.17;100.00
4586;BME280;2305;50.118;8.952;2023-02-23T02:47:00;100190.09;;;10.17;100.00
4586;BME280;2305;50.118;8.952;2023-02-23T02:49:36;100187.72;;;10.14;100.00
4586;BME280;2305;50.118;8.952;2023-02-23T02:52:16;100184.13;;;10.15;100.00
4586;BME280;2305;50.118;8.952;2023-02-23T02:54:50;100177.31;;;10.13;100.00
4586;BME280;2305;50.118;8.952;2023-02-23T02:57:22;100180.78;;;10.13;100.00
4586;BME280;2305;50.118;8.952;2023-02-23T02:59:51;100177.44;;;10.11;100.00
4586;BME280;2305;50.118;8.952;2023-02-23T03:02:39;100181.88;;;10.11;100.00
4586;BME280;2305;50.118;8.952;2023-02-23T03:05:35;100181.16;;;10.09;100.00
4586;BME280;2305;50.118;8.952;2023-02-23T03:08:27;100180.91;;;10.12;100.00
4586;BME280;2305;50.118;8.952;2023-02-23T03:11:17;100185.47;;;10.10;100.00
4586;BME280;2305;50.118;8.952;2023-02-23T03:14:14;100175.91;;;10.09;100.00
4586;BME280;2305;50.118;8.952;2023-02-23T03:17:06;100176.03;;;10.07;100.00
4586;BME280;2305;50.118;8.952;2023-02-23T03:19:58;100173.28;;;10.09;100.00
4586;BME280;2305;50.118;8.952;2023-02-23T03:22:54;100177.81;;;10.07;100.00
4586;BME280;2305;50.118;8.952;2023-02-23T03:25:48;100173.50;;;10.06;100.00
4586;BME280;2305;50.118;8.952;2023-02-23T03:28:44;100179.97;;;10.02;100.00
4586;BME280;2305;50.118;8.952;2023-02-23T03:31:39;100180.91;;;10.01;100.00
4586;BME280;2305;50.118;8.952;2023-02-23T03:34:32;100177.44;;;10.00;100.00
4586;BME280;2305;50.118;8.952;2023-02-23T03:37:27;100175.91;;;9.98;100.00
4586;BME280;2305;50.118;8.952;2023-02-23T03:40:18;100187.63;;;9.94;100.00
4586;BME280;2305;50.118;8.952;2023-02-23T03:43:08;100187.50;;;9.95;100.00
4586;BME280;2305;50.118;8.952;2023-02-23T03:45:57;100187.63;;;9.94;100.00
4586;BME280;2305;50.118;8.952;2023-02-23T03:48:47;100192.78;;;9.95;100.00
4586;BME280;2305;50.118;8.952;2023-02-23T03:51:36;100196.25;;;9.96;100.00
4586;BME280;2305;50.118;8.952;2023-02-23T03:54:31;100194.44;;;9.96;100.00
4586;BME280;2305;50.118;8.952;2023-02-23T03:57:20;100198.50;;;10.00;100.00
4586;BME280;2305;50.118;8.952;2023-02-23T04:00:19;100198.72;;;9.97;100.00
4586;BME280;2305;50.118;8.952;2023-02-23T04:03:12;100195.03;;;10.00;100.00
4586;BME280;2305;50.118;8.952;2023-02-23T04:06:00;100201.13;;;10.00;100.00
4586;BME280;2305;50.118;8.952;2023-02-23T04:08:47;100194.44;;;9.96;100.00
4586;BME280;2305;50.118;8.952;2023-02-23T04:11:41;100199.00;;;9.94;100.00
4586;BME280;2305;50.118;8.952;2023-02-23T04:14:35;100198.88;;;9.96;100.00
4586;BME280;2305;50.118;8.952;2023-02-23T04:17:05;100201.53;;;9.96;100.00
4586;BME280;2305;50.118;8.952;2023-02-23T04:19:34;100199.97;;;9.93;100.00
4586;BME280;2305;50.118;8.952;2023-02-23T04:22:04;100194.69;;;9.93;100.00
4586;BME280;2305;50.118;8.952;2023-02-23T04:24:32;100199.13;;;9.93;100.00
4586;BME280;2305;50.118;8.952;2023-02-23T04:27:00;100194.94;;;9.90;100.00
4586;BME280;2305;50.118;8.952;2023-02-23T04:29:29;100198.53;;;9.89;100.00
4586;BME280;2305;50.118;8.952;2023-02-23T04:31:57;100201.75;;;9.93;100.00
4586;BME280;2305;50.118;8.952;2023-02-23T04:34:25;100200.78;;;9.94;100.00
4586;BME280;2305;50.118;8.952;2023-02-23T04:36:57;100202.47;;;9.95;100.00
4586;BME280;2305;50.118;8.952;2023-02-23T04:39:25;100204.97;;;9.96;100.00
4586;BME280;2305;50.118;8.952;2023-02-23T04:41:53;100208.34;;;9.98;100.00
4586;BME280;2305;50.118;8.952;2023-02-23T04:44:23;100204.72;;;9.99;100.00
4586;BME280;2305;50.118;8.952;2023-02-23T04:46:52;100208.91;;;10.02;100.00
4586;BME280;2305;50.118;8.952;2023-02-23T04:49:21;100208.91;;;10.02;100.00
4586;BME280;2305;50.118;8.952;2023-02-23T04:51:49;100208.69;;;10.05;100.00
4586;BME280;2305;50.118;8.952;2023-02-23T04:54:20;100208.81;;;10.03;100.00
4586;BME280;2305;50.118;8.952;2023-02-23T04:56:48;100203.44;;;10.05;100.00
4586;BME280;2305;50.118;8.952;2023-02-23T04:59:16;100210.25;;;10.07;100.00
4586;BME280;2305;50.118;8.952;2023-02-23T05:01:44;100206.66;;;10.08;100.00
4586;BME280;2305;50.118;8.952;2023-02-23T05:04:14;100212.88;;;10.07;100.00
4586;BME280;2305;50.118;8.952;2023-02-23T05:06:42;100207.50;;;10.09;100.00
4586;BME280;2305;50.118;8.952;2023-02-23T05:09:10;100208.31;;;10.09;100.00
4586;BME280;2305;50.118;8.952;2023-02-23T05:11:42;100204.59;;;10.12;100.00
4586;BME280;2305;50.118;8.952;2023-02-23T05:14:10;100201.28;;;10.10;100.00
4586;BME280;2305;50.118;8.952;2023-02-23T05:16:38;100209.16;;;10.10;100.00
4586;BME280;2305;50.118;8.952;2023-02-23T05:19:08;100212.63;;;10.10;100.00
4586;BME280;2305;50.118;8.952;2023-02-23T05:21:36;100207.34;;;10.10;100.00
4586;BME280;2305;50.118;8.952;2023-02-23T05:24:07;100208.31;;;10.09;100.00
4586;BME280;2305;50.118;8.952;2023-02-23T05:26:35;100210.94;;;10.09;100.00
4586;BME280;2305;50.118;8.952;2023-02-23T05:29:05;100213.69;;;10.08;100.00
4586;BME280;2305;50.118;8.952;2023-02-23T05:31:33;100209.28;;;10.08;100.00
4586;BME280;2305;50.118;8.952;2023-02-23T05:34:02;100210.13;;;10.09;100.00
4586;BME280;2305;50.118;8.952;2023-02-23T05:36:30;100205.69;;;10.09;100.00
4586;BME280;2305;50.118;8.952;2023-02-23T05:38:58;100211.78;;;10.10;100.00
4586;BME280;2305;50.118;8.952;2023-02-23T05:41:26;100210.94;;;10.09;100.00
4586;BME280;2305;50.118;8.952;2023-02-23T05:43:54;100209.97;;;10.10;100.00
4586;BME280;2305;50.118;8.952;2023-02-23T05:46:25;100215.00;;;10.13;100.00
4586;BME280;2305;50.118;8.952;2023-02-23T05:48:55;100219.53;;;10.11;100.00
4586;BME280;2305;50.118;8.952;2023-02-23T05:51:24;100217.66;;;10.13;100.00
4586;BME280;2305;50.118;8.952;2023-02-23T05:53:52;100220.97;;;10.15;100.00
4586;BME280;2305;50.118;8.952;2023-02-23T05:56:20;100218.47;;;10.14;100.00
4586;BME280;2305;50.118;8.952;2023-02-23T05:58:50;100221.94;;;10.14;100.00
4586;BME280;2305;50.118;8.952;2023-02-23T06:01:21;100219.31;;;10.14;100.00
4586;BME280;2305;50.118;8.952;2023-02-23T06:03:50;100223.50;;;10.17;100.00
4586;BME280;2305;50.118;8.952;2023-02-23T06:06:19;100221.84;;;10.16;100.00
4586;BME280;2305;50.118;8.952;2023-02-23T06:08:47;100215.59;;;10.17;100.00
4586;BME280;2305;50.118;8.952;2023-02-23T06:11:17;100223.50;;;10.17;100.00
4586;BME280;2305;50.118;8.952;2023-02-23T06:13:46;100215.44;;;10.18;100.00
4586;BME280;2305;50.118;8.952;2023-02-23T06:16:16;100227.81;;;10.18;100.00
4586;BME280;2305;50.118;8.952;2023-02-23T06:18:45;100224.47;;;10.16;100.00
4586;BME280;2305;50.118;8.952;2023-02-23T06:21:15;100234.16;;;10.15;100.00
4586;BME280;2305;50.118;8.952;2023-02-23T06:23:47;100235.22;;;10.13;100.00
4586;BME280;2305;50.118;8.952;2023-02-23T06:26:15;100228.41;;;10.10;100.00
4586;BME280;2305;50.118;8.952;2023-02-23T06:28:43;100231.19;;;10.09;100.00
4586;BME280;2305;50.118;8.952;2023-02-23T06:31:11;100237.03;;;10.12;100.00
4586;BME280;2305;50.118;8.952;2023-02-23T06:33:39;100239.41;;;10.15;100.00
4586;BME280;2305;50.118;8.952;2023-02-23T06:36:10;100237.63;;;10.16;100.00
4586;BME280;2305;50.118;8.952;2023-02-23T06:38:39;100244.41;;;10.18;100.00
4586;BME280;2305;50.118;8.952;2023-02-23T06:41:07;100244.19;;;10.21;100.00
4586;BME280;2305;50.118;8.952;2023-02-23T06:43:36;100250.03;;;10.25;100.00
4586;BME280;2305;50.118;8.952;2023-02-23T06:46:04;100249.19;;;10.24;100.00
4586;BME280;2305;50.118;8.952;2023-02-23T06:48:32;100245.59;;;10.25;100.00
4586;BME280;2305;50.118;8.952;2023-02-23T06:51:01;100250.84;;;10.25;100.00
4586;BME280;2305;50.118;8.952;2023-02-23T06:53:29;100247.13;;;10.28;100.00
4586;BME280;2305;50.118;8.952;2023-02-23T06:55:58;100254.81;;;10.31;100.00
4586;BME280;2305;50.118;8.952;2023-02-23T06:58:27;100256.59;;;10.30;100.00
4586;BME280;2305;50.118;8.952;2023-02-23T07:00:55;100259.50;;;10.27;100.00
4586;BME280;2305;50.118;8.952;2023-02-23T07:03:24;100263.78;;;10.28;100.00
4586;BME280;2305;50.118;8.952;2023-02-23T07:05:53;100267.84;;;10.32;100.00
4586;BME280;2305;50.118;8.952;2023-02-23T07:08:21;100270.22;;;10.35;100.00
4586;BME280;2305;50.118;8.952;2023-02-23T07:10:49;100276.91;;;10.39;100.00
4586;BME280;2305;50.118;8.952;2023-02-23T07:13:19;100276.78;;;10.41;100.00
4586;BME280;2305;50.118;8.952;2023-02-23T07:15:47;100269.59;;;10.43;100.00
4586;BME280;2305;50.118;8.952;2023-02-23T07:18:16;100265.88;;;10.45;100.00
4586;BME280;2305;50.118;8.952;2023-02-23T07:20:44;100272.81;;;10.46;100.00
4586;BME280;2305;50.118;8.952;2023-02-23T07:23:12;100272.00;;;10.46;100.00
4586;BME280;2305;50.118;8.952;2023-02-23T07:25:40;100269.94;;;10.49;100.00
4586;BME280;2305;50.118;8.952;2023-02-23T07:28:09;100273.28;;;10.51;100.00
4586;BME280;2305;50.118;8.952;2023-02-23T07:30:41;100280.09;;;10.54;100.00
4586;BME280;2305;50.118;8.952;2023-02-23T07:33:09;100268.34;;;10.58;100.00
4586;BME280;2305;50.118;8.952;2023-02-23T07:35:37;100272.41;;;10.62;100.00
4586;BME280;2305;50.118;8.952;2023-02-23T07:38:05;100271.44;;;10.63;100.00
4586;BME280;2305;50.118;8.952;2023-02-23T07:40:33;100276.59;;;10.64;100.00
4586;BME280;2305;50.118;8.952;2023-02-23T07:43:03;100270.81;;;10.70;100.00
4586;BME280;2305;50.118;8.952;2023-02-23T07:45:32;100276.41;;;10.77;100.00
4586;BME280;2305;50.118;8.952;2023-02-23T07:48:03;100280.19;;;10.84;100.00
4586;BME280;2305;50.118;8.952;2023-02-23T07:50:33;100285.22;;;10.87;100.00
4586;BME280;2305;50.118;8.952;2023-02-23T07:53:01;100285.66;;;10.92;100.00
4586;BME280;2305;50.118;8.952;2023-02-23T07:55:32;100283.22;;;11.00;100.00
4586;BME280;2305;50.118;8.952;2023-02-23T07:58:00;100279.94;;;11.07;100.00
4586;BME280;2305;50.118;8.952;2023-02-23T08:00:28;100286.38;;;11.14;100.00
4586;BME280;2305;50.118;8.952;2023-02-23T08:02:56;100280.72;;;11.19;100.00
4586;BME280;2305;50.118;8.952;2023-02-23T08:05:26;100283.66;;;11.25;100.00
4586;BME280;2305;50.118;8.952;2023-02-23T08:07:54;100285.19;;;11.28;100.00
4586;BME280;2305;50.118;8.952;2023-02-23T08:10:24;100282.38;;;11.20;100.00
4586;BME280;2305;50.118;8.952;2023-02-23T08:12:52;100297.38;;;11.19;100.00
4586;BME280;2305;50.118;8.952;2023-02-23T08:15:20;100292.16;;;11.08;100.00
4586;BME280;2305;50.118;8.952;2023-02-23T08:17:48;100291.69;;;11.03;100.00
4586;BME280;2305;50.118;8.952;2023-02-23T08:20:16;100296.00;;;11.04;100.00
4586;BME280;2305;50.118;8.952;2023-02-23T08:22:45;100296.97;;;11.03;100.00
4586;BME280;2305;50.118;8.952;2023-02-23T08:25:17;100298.06;;;11.01;100.00
4586;BME280;2305;50.118;8.952;2023-02-23T08:27:46;100300.97;;;10.98;100.00
4586;BME280;2305;50.118;8.952;2023-02-23T08:30:14;100300.59;;;11.02;100.00
4586;BME280;2305;50.118;8.952;2023-02-23T08:32:42;100312.56;;;11.06;100.00
4586;BME280;2305;50.118;8.952;2023-02-23T08:35:10;100298.00;;;11.12;100.00
4586;BME280;2305;50.118;8.952;2023-02-23T08:37:38;100296.41;;;11.20;100.00
4586;BME280;2305;50.118;8.952;2023-02-23T08:40:10;100306.88;;;11.31;100.00
4586;BME280;2305;50.118;8.952;2023-02-23T08:42:41;100300.97;;;11.39;100.00
4586;BME280;2305;50.118;8.952;2023-02-23T08:45:11;100304.75;;;11.46;100.00
4586;BME280;2305;50.118;8.952;2023-02-23T08:47:39;100301.72;;;11.50;100.00
4586;BME280;2305;50.118;8.952;2023-02-23T08:50:08;100310.59;;;11.49;100.00
4586;BME280;2305;50.118;8.952;2023-02-23T08:52:38;100306.59;;;11.55;100.00
4586;BME280;2305;50.118;8.952;2023-02-23T08:55:09;100306.28;;;11.48;100.00
4586;BME280;2305;50.118;8.952;2023-02-23T08:57:37;100313.75;;;11.43;100.00
4586;BME280;2305;50.118;8.952;2023-02-23T09:00:06;100311.75;;;11.36;100.00
4586;BME280;2305;50.118;8.952;2023-02-23T09:02:40;100313.69;;;11.34;100.00
4586;BME280;2305;50.118;8.952;2023-02-23T09:05:09;100312.53;;;11.27;100.00
4586;BME280;2305;50.118;8.952;2023-02-23T09:07:37;100315.63;;;11.32;100.00
4586;BME280;2305;50.118;8.952;2023-02-23T09:10:09;100307.25;;;11.27;100.00
4586;BME280;2305;50.118;8.952;2023-02-23T09:12:38;100312.88;;;11.33;100.00
4586;BME280;2305;50.118;8.952;2023-02-23T09:15:07;100318.06;;;11.44;100.00
4586;BME280;2305;50.118;8.952;2023-02-23T09:17:36;100317.75;;;11.58;100.00
4586;BME280;2305;50.118;8.952;2023-02-23T09:20:06;100320.84;;;11.63;100.00
4586;BME280;2305;50.118;8.952;2023-02-23T09:22:34;100317.22;;;11.64;100.00
4586;BME280;2305;50.118;8.952;2023-02-23T09:25:07;100318.50;;;11.70;100.00
4586;BME280;2305;50.118;8.952;2023-02-23T09:27:37;100326.28;;;11.71;100.00
4586;BME280;2305;50.118;8.952;2023-02-23T09:30:06;100322.22;;;11.67;100.00
4586;BME280;2305;50.118;8.952;2023-02-23T09:32:36;100320.31;;;11.69;100.00
4586;BME280;2305;50.118;8.952;2023-02-23T09:35:04;100319.34;;;11.70;100.00
4586;BME280;2305;50.118;8.952;2023-02-23T09:37:33;100320.75;;;11.74;100.00
4586;BME280;2305;50.118;8.952;2023-02-23T09:40:05;100327.88;;;11.83;100.00
4586;BME280;2305;50.118;8.952;2023-02-23T09:42:42;100321.69;;;11.94;100.00
4586;BME280;2305;50.118;8.952;2023-02-23T09:45:23;100322.66;;;12.02;100.00
4586;BME280;2305;50.118;8.952;2023-02-23T09:48:05;100330.91;;;12.09;100.00
4586;BME280;2305;50.118;8.952;2023-02-23T09:50:37;100335.78;;;12.13;100.00
4586;BME280;2305;50.118;8.952;2023-02-23T09:53:19;100335.25;;;12.19;100.00
4586;BME280;2305;50.118;8.952;2023-02-23T09:55:49;100329.25;;;12.27;100.00
4586;BME280;2305;50.118;8.952;2023-02-23T09:58:23;100331.66;;;12.39;100.00
4586;BME280;2305;50.118;8.952;2023-02-23T10:01:06;100324.47;;;12.51;100.00
4586;BME280;2305;50.118;8.952;2023-02-23T10:03:49;100331.00;;;12.56;100.00
4586;BME280;2305;50.118;8.952;2023-02-23T10:06:19;100328.34;;;12.56;100.00
4586;BME280;2305;50.118;8.952;2023-02-23T10:08:59;100333.91;;;12.63;100.00
4586;BME280;2305;50.118;8.952;2023-02-23T10:11:34;100331.13;;;12.64;100.00
4586;BME280;2305;50.118;8.952;2023-02-23T10:14:21;100338.66;;;12.69;100.00
4586;BME280;2305;50.118;8.952;2023-02-23T10:17:04;100335.88;;;12.61;100.00
4586;BME280;2305;50.118;8.952;2023-02-23T10:19:43;100334.19;;;12.60;100.00
4586;BME280;2305;50.118;8.952;2023-02-23T10:22:19;100337.69;;;12.51;100.00
4586;BME280;2305;50.118;8.952;2023-02-23T10:24:51;100336.13;;;12.48;100.00
4586;BME280;2305;50.118;8.952;2023-02-23T10:27:23;100333.91;;;12.53;100.00
4586;BME280;2305;50.118;8.952;2023-02-23T10:29:57;100331.44;;;12.61;100.00
4586;BME280;2305;50.118;8.952;2023-02-23T10:32:37;100335.19;;;12.68;100.00
4586;BME280;2305;50.118;8.952;2023-02-23T10:35:10;100331.16;;;12.74;100.00
4586;BME280;2305;50.118;8.952;2023-02-23T10:37:39;100325.88;;;12.74;100.00
4586;BME280;2305;50.118;8.952;2023-02-23T10:40:13;100329.75;;;12.70;100.00
4586;BME280;2305;50.118;8.952;2023-02-23T10:42:44;100327.81;;;12.72;100.00
4586;BME280;2305;50.118;8.952;2023-02-23T10:45:18;100329.06;;;12.77;100.00
4586;BME280;2305;50.118;8.952;2023-02-23T10:47:51;100335.03;;;12.79;100.00
4586;BME280;2305;50.118;8.952;2023-02-23T10:50:21;100338.81;;;12.86;100.00
4586;BME280;2305;50.118;8.952;2023-02-23T10:52:57;100332.28;;;12.90;100.00
4586;BME280;2305;50.118;8.952;2023-02-23T10:55:27;100326.69;;;12.93;100.00
4586;BME280;2305;50.118;8.952;2023-02-23T10:58:09;100332.56;;;12.97;100.00
4586;BME280;2305;50.118;8.952;2023-02-23T11:00:55;100330.19;;;13.03;100.00
4586;BME280;2305;50.118;8.952;2023-02-23T11:03:31;100333.38;;;13.07;100.00
4586;BME280;2305;50.118;8.952;2023-02-23T11:06:02;100337.56;;;13.09;100.00
4586;BME280;2305;50.118;8.952;2023-02-23T11:08:32;100333.13;;;13.10;100.00
4586;BME280;2305;50.118;8.952;2023-02-23T11:11:19;100330.19;;;13.03;100.00
4586;BME280;2305;50.118;8.952;2023-02-23T11:13:51;100329.75;;;13.17;100.00
4586;BME280;2305;50.118;8.952;2023-02-23T11:16:22;100327.28;;;13.25;100.00
4586;BME280;2305;50.118;8.952;2023-02-23T11:18:53;100327.94;;;13.37;100.00
4586;BME280;2305;50.118;8.952;2023-02-23T11:21:26;100322.75;;;13.45;100.00
4586;BME280;2305;50.118;8.952;2023-02-23T11:23:57;100329.13;;;13.61;100.00
4586;BME280;2305;50.118;8.952;2023-02-23T11:26:30;100322.38;;;13.76;100.00
4586;BME280;2305;50.118;8.952;2023-02-23T11:29:02;100325.41;;;13.81;100.00
4586;BME280;2305;50.118;8.952;2023-02-23T11:31:38;100322.59;;;13.92;100.00
4586;BME280;2305;50.118;8.952;2023-02-23T11:34:06;100320.25;;;13.89;100.00
4586;BME280;2305;50.118;8.952;2023-02-23T11:36:36;100320.34;;;13.97;100.00
4586;BME280;2305;50.118;8.952;2023-02-23T11:39:18;100322.41;;;14.03;100.00
4586;BME280;2305;50.118;8.952;2023-02-23T11:42:11;100319.59;;;14.04;100.00
4586;BME280;2305;50.118;8.952;2023-02-23T11:44:40;100317.13;;;14.03;100.00
4586;BME280;2305;50.118;8.952;2023-02-23T11:47:18;100312.44;;;13.87;100.00
4586;BME280;2305;50.118;8.952;2023-02-23T11:49:49;100319.84;;;13.84;100.00
4586;BME280;2305;50.118;8.952;2023-02-23T11:52:20;100316.53;;;13.73;100.00
4586;BME280;2305;50.118;8.952;2023-02-23T11:54:55;100309.38;;;13.46;100.00
4586;BME280;2305;50.118;8.952;2023-02-23T11:57:27;100309.78;;;13.51;100.00
4586;BME280;2305;50.118;8.952;2023-02-23T12:00:01;100307.53;;;13.56;100.00
4586;BME280;2305;50.118;8.952;2023-02-23T12:02:47;100317.28;;;13.56;100.00
4586;BME280;2305;50.118;8.952;2023-02-23T12:05:19;100310.94;;;13.39;100.00
4586;BME280;2305;50.118;8.952;2023-02-23T12:07:53;100305.75;;;13.47;100.00
4586;BME280;2305;50.118;8.952;2023-02-23T12:10:28;100295.63;;;13.43;100.00
4586;BME280;2305;50.118;8.952;2023-02-23T12:13:08;100304.06;;;13.46;100.00
4586;BME280;2305;50.118;8.952;2023-02-23T12:15:43;100293.75;;;13.53;100.00
4586;BME280;2305;50.118;8.952;2023-02-23T12:18:27;100296.41;;;13.53;100.00
4586;BME280;2305;50.118;8.952;2023-02-23T12:21:12;100298.75;;;13.56;100.00
4586;BME280;2305;50.118;8.952;2023-02-23T12:23:48;100291.66;;;13.56;100.00
4586;BME280;2305;50.118;8.952;2023-02-23T12:26:20;100295.41;;;13.63;100.00
4586;BME280;2305;50.118;8.952;2023-02-23T12:28:54;100284.69;;;13.55;100.00
4586;BME280;2305;50.118;8.952;2023-02-23T12:31:27;100282.94;;;13.37;100.00
4586;BME280;2305;50.118;8.952;2023-02-23T12:34:12;100280.66;;;13.51;100.00
4586;BME280;2305;50.118;8.952;2023-02-23T12:36:46;100285.59;;;13.73;100.00
4586;BME280;2305;50.118;8.952;2023-02-23T12:39:23;100278.44;;;13.83;100.00
4586;BME280;2305;50.118;8.952;2023-02-23T12:41:59;100270.91;;;14.05;100.00
4586;BME280;2305;50.118;8.952;2023-02-23T12:44:36;100274.72;;;14.47;100.00
4586;BME280;2305;50.118;8.952;2023-02-23T12:47:18;100266.16;;;14.88;100.00
4586;BME280;2305;50.118;8.952;2023-02-23T12:49:54;100265.56;;;15.20;100.00
4586;BME280;2305;50.118;8.952;2023-02-23T12:52:36;100263.22;;;15.17;100.00
4586;BME280;2305;50.118;8.952;2023-02-23T12:55:10;100263.16;;;15.09;100.00
4586;BME280;2305;50.118;8.952;2023-02-23T12:57:47;100253.78;;;14.97;100.00
4586;BME280;2305;50.118;8.952;2023-02-23T13:00:42;100261.69;;;14.89;100.00
4586;BME280;2305;50.118;8.952;2023-02-23T13:03:32;100261.44;;;14.82;100.00
4586;BME280;2305;50.118;8.952;2023-02-23T13:06:11;100258.75;;;14.74;100.00
4586;BME280;2305;50.118;8.952;2023-02-23T13:08:57;100254.50;;;14.64;100.00
4586;BME280;2305;50.118;8.952;2023-02-23T13:11:44;100249.28;;;14.54;100.00
4586;BME280;2305;50.118;8.952;2023-02-23T13:14:17;100243.38;;;14.43;100.00
4586;BME280;2305;50.118;8.952;2023-02-23T13:16:51;100244.50;;;14.40;100.00
4586;BME280;2305;50.118;8.952;2023-02-23T13:19:25;100244.41;;;14.32;100.00
4586;BME280;2305;50.118;8.952;2023-02-23T13:22:01;100246.69;;;14.27;100.00
4586;BME280;2305;50.118;8.952;2023-02-23T13:24:37;100249.50;;;14.26;100.00
4586;BME280;2305;50.118;8.952;2023-02-23T13:27:15;100244.13;;;14.18;100.00
4586;BME280;2305;50.118;8.952;2023-02-23T13:29:46;100241.31;;;14.10;100.00
4586;BME280;2305;50.118;8.952;2023-02-23T13:32:16;100246.53;;;14.02;100.00
4586;BME280;2305;50.118;8.952;2023-02-23T13:34:51;100245.78;;;13.92;100.00
4586;BME280;2305;50.118;8.952;2023-02-23T13:37:25;100245.53;;;13.85;100.00
4586;BME280;2305;50.118;8.952;2023-02-23T13:40:03;100241.81;;;13.78;100.00
4586;BME280;2305;50.118;8.952;2023-02-23T13:42:41;100252.81;;;13.74;100.00
4586;BME280;2305;50.118;8.952;2023-02-23T13:45:24;100252.59;;;13.68;100.00
4586;BME280;2305;50.118;8.952;2023-02-23T13:48:02;100250.13;;;13.57;100.00
4586;BME280;2305;50.118;8.952;2023-02-23T13:50:40;100256.94;;;13.59;100.00